createdAt,value
2023-02-01T00:00:53.219Z,100180.69
2023-02-01T00:03:20.057Z,100180.25
2023-02-01T00:05:46.492Z,100188.66
2023-02-01T00:08:12.835Z,100178.63
2023-02-01T00:10:39.164Z,100193.97
2023-02-01T00:13:05.477Z,100188.06
2023-02-01T00:15:31.902Z,100193.97
2023-02-01T00:17:58.319Z,100190.50
2023-02-01T00:20:24.640Z,100197.88
2023-02-01T00:22:51.033Z,100192.03
2023-02-01T00:25:17.430Z,100200.97
2023-02-01T00:27:43.742Z,100199.50
2023-02-01T00:30:10.163Z,100210.06
2023-02-01T00:32:36.480Z,100200.31
2023-02-01T00:35:02.878Z,100201.19
2023-02-01T00:37:29.228Z,100199.81
2023-02-01T00:39:56.851Z,100201.66
2023-02-01T00:42:23.196Z,100197.78
2023-02-01T00:44:49.503Z,100203.50
2023-02-01T00:47:15.839Z,100204.94
2023-02-01T00:49:42.139Z,100206.06
2023-02-01T00:52:08.450Z,100209.38
2023-02-01T00:54:34.957Z,100203.09
2023-02-01T00:57:01.269Z,100201.25
2023-02-01T00:59:27.642Z,100198.59
2023-02-01T01:01:54.099Z,100208.72
2023-02-01T01:04:20.416Z,100213.75
2023-02-01T01:06:46.787Z,100211.00
2023-02-01T01:09:13.099Z,100211.72
2023-02-01T01:11:39.477Z,100216.31
2023-02-01T01:14:05.833Z,100214.59
2023-02-01T01:16:32.213Z,100213.16
2023-02-01T01:18:58.565Z,100209.66
2023-02-01T01:21:24.909Z,100211.38
2023-02-01T01:23:51.231Z,100200.44
2023-02-01T01:26:17.635Z,100185.28
2023-02-01T01:28:43.957Z,100200.84
2023-02-01T01:31:10.700Z,100199.94
2023-02-01T01:33:37.065Z,100201.88
2023-02-01T01:36:03.387Z,100205.97
2023-02-01T01:38:29.680Z,100213.75
2023-02-01T01:40:56.015Z,100206.72
2023-02-01T01:43:23.694Z,100200.97
2023-02-01T01:45:50.661Z,100200.53
2023-02-01T01:48:17.016Z,100202.16
2023-02-01T01:50:43.348Z,100196.97
2023-02-01T01:53:09.653Z,100194.50
2023-02-01T01:55:35.981Z,100190.19
2023-02-01T01:58:02.330Z,100198.31
2023-02-01T02:00:28.764Z,100193.37
2023-02-01T02:02:55.183Z,100199.94
2023-02-01T02:05:21.576Z,100195.12
2023-02-01T02:07:47.930Z,100192.25
2023-02-01T02:10:14.244Z,100192.87
2023-02-01T02:12:40.565Z,100190.41
2023-02-01T02:15:07.657Z,100192.34
2023-02-01T02:17:33.978Z,100194.19
2023-02-01T02:20:00.287Z,100199.41
2023-02-01T02:22:26.877Z,100187.53
2023-02-01T02:24:53.194Z,100173.81
2023-02-01T02:27:25.864Z,100179.75
2023-02-01T02:29:52.218Z,100183.72
2023-02-01T02:32:18.526Z,100181.59
2023-02-01T02:34:44.852Z,100178.72
2023-02-01T02:37:11.161Z,100165.81
2023-02-01T02:39:37.477Z,100168.59
2023-02-01T02:42:22.487Z,100166.63
2023-02-01T02:45:07.361Z,100161.00
2023-02-01T02:47:33.697Z,100162.13
2023-02-01T02:50:19.125Z,100155.37
2023-02-01T02:53:04.369Z,100157.31
2023-02-01T02:55:30.721Z,100151.19
2023-02-01T02:58:15.849Z,100161.09
2023-02-01T03:01:00.796Z,100156.28
2023-02-01T03:03:45.710Z,100168.69
2023-02-01T03:06:12.017Z,100169.50
2023-02-01T03:08:38.329Z,100170.31
2023-02-01T03:11:05.219Z,100170.94
2023-02-01T03:13:31.526Z,100179.75
2023-02-01T03:15:57.935Z,100172.37
2023-02-01T03:18:24.264Z,100181.38
2023-02-01T03:20:50.593Z,100177.31
2023-02-01T03:23:16.943Z,100178.41
2023-02-01T03:25:43.256Z,100189.34
2023-02-01T03:28:10.080Z,100172.28
2023-02-01T03:30:36.412Z,100175.63
2023-02-01T03:33:03.085Z,100184.25
2023-02-01T03:35:29.886Z,100170.75
2023-02-01T03:37:56.218Z,100179.44
2023-02-01T03:40:22.822Z,100162.66
2023-02-01T03:42:49.345Z,100164.47
2023-02-01T03:45:15.677Z,100166.41
2023-02-01T03:47:42.007Z,100171.34
2023-02-01T03:50:08.360Z,100168.59
2023-02-01T03:52:35.739Z,100169.72
2023-02-01T03:55:02.051Z,100159.88
2023-02-01T03:57:28.406Z,100165.50
2023-02-01T03:59:54.743Z,100159.97
2023-02-01T04:02:21.104Z,100147.50
2023-02-01T04:04:47.447Z,100146.16
2023-02-01T04:07:13.767Z,100145.03
2023-02-01T04:09:40.105Z,100134.69
2023-02-01T04:12:06.451Z,100137.75
2023-02-01T04:14:32.776Z,100127.31
2023-02-01T04:16:59.078Z,100132.22
2023-02-01T04:19:25.399Z,100133.75
2023-02-01T04:21:51.722Z,100139.59
2023-02-01T04:24:18.063Z,100127.72
2023-02-01T04:26:44.467Z,100134.88
2023-02-01T04:29:11.298Z,100117.16
2023-02-01T04:31:37.822Z,100116.84
2023-02-01T04:34:04.257Z,100125.34
2023-02-01T04:36:30.555Z,100116.75
2023-02-01T04:38:56.883Z,100109.97
2023-02-01T04:41:23.929Z,100118.81
2023-02-01T04:43:50.262Z,100102.00
2023-02-01T04:46:16.633Z,100109.03
2023-02-01T04:48:43.021Z,100098.91
2023-02-01T04:51:09.356Z,100099.94
2023-02-01T04:53:35.722Z,100091.03
2023-02-01T04:56:02.230Z,100093.91
2023-02-01T04:58:28.586Z,100085.41
2023-02-01T05:00:54.986Z,100071.56
2023-02-01T05:03:21.376Z,100087.03
2023-02-01T05:05:47.704Z,100083.44
2023-02-01T05:08:14.005Z,100080.41
2023-02-01T05:10:40.325Z,100080.81
2023-02-01T05:13:25.392Z,100058.88
2023-02-01T05:15:51.770Z,100065.56
2023-02-01T05:18:18.093Z,100060.72
2023-02-01T05:20:44.451Z,100052.22
2023-02-01T05:23:10.785Z,100051.09
2023-02-01T05:25:37.112Z,100054.66
2023-02-01T05:28:03.766Z,100045.38
2023-02-01T05:30:30.562Z,100039.84
2023-02-01T05:32:56.875Z,100046.47
2023-02-01T05:35:23.204Z,100032.78
2023-02-01T05:37:49.520Z,100034.94
2023-02-01T05:40:15.885Z,100032.16
2023-02-01T05:42:42.249Z,100037.56
2023-02-01T05:45:08.702Z,100040.03
2023-02-01T05:47:35.091Z,100042.50
2023-02-01T05:50:01.713Z,100030.63
2023-02-01T05:52:28.090Z,100037.91
2023-02-01T05:54:54.432Z,100045.88
2023-02-01T05:57:20.775Z,100035.81
2023-02-01T05:59:47.108Z,100030.19
2023-02-01T06:02:13.424Z,100035.38
2023-02-01T06:04:40.228Z,100041.13
2023-02-01T06:07:08.093Z,100034.66
2023-02-01T06:09:34.421Z,100031.81
2023-02-01T06:12:02.109Z,100032.44
2023-02-01T06:14:28.707Z,100023.31
2023-02-01T06:16:55.137Z,100030.19
2023-02-01T06:19:21.449Z,100038.97
2023-02-01T06:21:47.995Z,100023.50
2023-02-01T06:24:14.362Z,100038.97
2023-02-01T06:26:41.207Z,100032.31
2023-02-01T06:29:07.727Z,100040.31
2023-02-01T06:31:34.162Z,100033.63
2023-02-01T06:34:00.589Z,100036.09
2023-02-01T06:36:26.916Z,100039.38
2023-02-01T06:38:53.346Z,100037.34
2023-02-01T06:41:21.611Z,100038.97
2023-02-01T06:43:48.138Z,100031.81
2023-02-01T06:46:14.559Z,100045.62
2023-02-01T06:48:40.869Z,100032.44
2023-02-01T06:51:07.249Z,100040.03
2023-02-01T06:53:33.597Z,100035.53
2023-02-01T06:55:59.912Z,100023.97
2023-02-01T06:58:26.221Z,100015.69
2023-02-01T07:00:54.940Z,100026.13
2023-02-01T07:03:21.321Z,100025.50
2023-02-01T07:05:47.649Z,100026.13
2023-02-01T07:08:13.976Z,100016.59
2023-02-01T07:10:40.412Z,100012.81
2023-02-01T07:13:06.741Z,100012.47
2023-02-01T07:15:33.061Z,100026.63
2023-02-01T07:17:59.388Z,100009.22
2023-02-01T07:20:25.877Z,100025.12
2023-02-01T07:22:52.255Z,100026.63
2023-02-01T07:25:18.577Z,100007.28
2023-02-01T07:27:45.186Z,100021.84
2023-02-01T07:30:11.505Z,100009.69
2023-02-01T07:32:37.887Z,100023.22
2023-02-01T07:35:04.215Z,100014.53
2023-02-01T07:37:31.807Z,100011.44
2023-02-01T07:39:58.195Z,100013.06
2023-02-01T07:42:24.507Z,100005.91
2023-02-01T07:44:50.866Z,100007.34
2023-02-01T07:47:17.214Z,100009.38
2023-02-01T07:49:43.574Z,100001.41
2023-02-01T07:52:12.279Z,100001.62
2023-02-01T07:54:38.600Z,99997.94
2023-02-01T07:57:04.936Z,99992.59
2023-02-01T07:59:31.241Z,99991.63
2023-02-01T08:01:57.571Z,99977.81
2023-02-01T08:04:23.941Z,99987.09
2023-02-01T08:06:50.272Z,99977.59
2023-02-01T08:09:16.714Z,99987.06
2023-02-01T08:11:43.106Z,99981.97
2023-02-01T08:14:09.419Z,99996.69
2023-02-01T08:16:37.636Z,99978.78
2023-02-01T08:19:03.987Z,99983.91
2023-02-01T08:21:37.707Z,99976.22
2023-02-01T08:24:04.218Z,99973.34
2023-02-01T08:26:30.568Z,99981.84
2023-02-01T08:28:56.911Z,99971.22
2023-02-01T08:31:24.604Z,99976.22
2023-02-01T08:33:50.973Z,99975.41
2023-02-01T08:36:17.282Z,99963.13
2023-02-01T08:38:43.671Z,99955.78
2023-02-01T08:41:09.967Z,99944.59
2023-02-01T08:43:36.335Z,99953.09
2023-02-01T08:46:02.728Z,99941.13
2023-02-01T08:48:29.110Z,99940.78
2023-02-01T08:50:55.545Z,99943.34
2023-02-01T08:53:21.849Z,99930.91
2023-02-01T08:55:48.184Z,99932.87
2023-02-01T08:58:15.117Z,99935.94
2023-02-01T09:00:41.481Z,99937.63
2023-02-01T09:03:07.790Z,99931.72
2023-02-01T09:05:48.407Z,99933.66
2023-02-01T09:08:16.089Z,99929.06
2023-02-01T09:10:42.524Z,99919.94
2023-02-01T09:13:08.988Z,99911.75
2023-02-01T09:15:35.344Z,99934.94
2023-02-01T09:18:01.918Z,99925.94
2023-02-01T09:20:28.234Z,99920.72
2023-02-01T09:22:54.607Z,99926.75
2023-02-01T09:25:21.041Z,99934.81
2023-02-01T09:27:47.465Z,99940.87
2023-02-01T09:30:13.776Z,99928.66
2023-02-01T09:32:40.105Z,99941.53
2023-02-01T09:35:06.419Z,99947.81
2023-02-01T09:37:34.001Z,99944.44
2023-02-01T09:40:00.351Z,99942.25
2023-02-01T09:42:26.645Z,99922.97
2023-02-01T09:44:53.023Z,99930.53
2023-02-01T09:47:19.352Z,99943.53
2023-02-01T09:49:47.362Z,99955.09
2023-02-01T09:52:13.726Z,99961.66
2023-02-01T09:54:40.042Z,99959.84
2023-02-01T09:57:06.376Z,99972.44
2023-02-01T09:59:32.698Z,99981.06
2023-02-01T10:02:00.479Z,99978.69
2023-02-01T10:04:26.854Z,99974.47
2023-02-01T10:06:53.157Z,99979.25
2023-02-01T10:09:19.514Z,99976.72
2023-02-01T10:11:51.999Z,99991.38
2023-02-01T10:14:18.316Z,99988.06
2023-02-01T10:16:44.922Z,100009.59
2023-02-01T10:19:11.366Z,100001.69
2023-02-01T10:21:40.738Z,99994.41
2023-02-01T10:24:17.338Z,100010.69
2023-02-01T10:26:47.000Z,100005.78
2023-02-01T10:29:13.381Z,100011.72
2023-02-01T10:31:39.945Z,100005.78
2023-02-01T10:34:06.318Z,100007.69
2023-02-01T10:36:32.737Z,100016.03
2023-02-01T10:38:59.133Z,100009.72
2023-02-01T10:41:25.558Z,100014.06
2023-02-01T10:43:51.924Z,99999.34
2023-02-01T10:46:18.644Z,100006.00
2023-02-01T10:48:44.977Z,99995.88
2023-02-01T10:51:11.341Z,100007.34
2023-02-01T10:53:38.312Z,100009.78
2023-02-01T10:56:04.605Z,99997.81
2023-02-01T10:58:32.665Z,99997.31
2023-02-01T11:00:59.072Z,100007.44
2023-02-01T11:03:25.410Z,100000.50
2023-02-01T11:05:51.757Z,100009.75
2023-02-01T11:08:18.223Z,100006.91
2023-02-01T11:10:44.552Z,100016.19
2023-02-01T11:13:10.857Z,100015.81
2023-02-01T11:15:37.177Z,100007.06
2023-02-01T11:18:03.654Z,100010.25
2023-02-01T11:20:30.062Z,100026.06
2023-02-01T11:22:56.498Z,100018.06
2023-02-01T11:25:23.538Z,100011.38
2023-02-01T11:27:55.423Z,100012.31
2023-02-01T11:30:22.094Z,100011.09
2023-02-01T11:32:48.509Z,100010.25
2023-02-01T11:35:14.895Z,100008.09
2023-02-01T11:37:41.241Z,100004.50
2023-02-01T11:40:07.602Z,99984.81
2023-02-01T11:42:33.925Z,100001.78
2023-02-01T11:45:00.241Z,99981.09
2023-02-01T11:47:26.764Z,99997.56
2023-02-01T11:49:53.277Z,99985.63
2023-02-01T11:52:19.796Z,99984.53
2023-02-01T11:54:46.103Z,99989.94
2023-02-01T11:57:12.477Z,99971.69
2023-02-01T11:59:40.971Z,99980.63
2023-02-01T12:02:09.506Z,99982.41
2023-02-01T12:04:35.860Z,99977.13
2023-02-01T12:07:02.348Z,99966.31
2023-02-01T12:09:28.803Z,99975.75
2023-02-01T12:11:55.377Z,99969.69
2023-02-01T12:14:21.683Z,99974.91
2023-02-01T12:16:48.094Z,99969.22
2023-02-01T12:19:14.492Z,99962.53
2023-02-01T12:21:40.803Z,99954.72
2023-02-01T12:24:07.125Z,99953.44
2023-02-01T12:26:33.570Z,99954.75
2023-02-01T12:28:59.905Z,99949.22
2023-02-01T12:31:26.269Z,99950.38
2023-02-01T12:33:52.612Z,99949.91
2023-02-01T12:36:18.954Z,99944.38
2023-02-01T12:38:46.601Z,99949.28
2023-02-01T12:41:12.923Z,99946.81
2023-02-01T12:43:39.241Z,99946.31
2023-02-01T12:46:05.589Z,99946.66
2023-02-01T12:48:32.038Z,99943.09
2023-02-01T12:51:00.579Z,99942.28
2023-02-01T12:53:26.931Z,99950.13
2023-02-01T12:55:53.339Z,99946.22
2023-02-01T12:58:19.667Z,99944.47
2023-02-01T13:00:46.123Z,99932.25
2023-02-01T13:03:12.731Z,99934.38
2023-02-01T13:05:39.075Z,99935.22
2023-02-01T13:08:05.422Z,99922.50
2023-02-01T13:10:31.762Z,99932.31
2023-02-01T13:12:58.095Z,99931.31
2023-02-01T13:15:24.440Z,99922.16
2023-02-01T13:17:50.805Z,99932.09
2023-02-01T13:20:17.117Z,99925.59
2023-02-01T13:22:44.759Z,99937.53
2023-02-01T13:25:11.141Z,99929.41
2023-02-01T13:27:37.447Z,99931.38
2023-02-01T13:30:04.085Z,99915.59
2023-02-01T13:33:50.594Z,99918.00
2023-02-01T13:35:17.345Z,99914.59
2023-02-01T13:37:43.870Z,99919.63
2023-02-01T13:40:10.243Z,99921.94
2023-02-01T13:42:36.569Z,99916.41
2023-02-01T13:45:02.919Z,99912.81
2023-02-01T13:47:29.261Z,99903.22
2023-02-01T13:49:55.721Z,99905.66
2023-02-01T13:52:22.015Z,99905.34
2023-02-01T13:54:48.352Z,99896.19
2023-02-01T13:57:14.655Z,99894.25
2023-02-01T13:59:41.015Z,99898.31
2023-02-01T14:02:12.158Z,99897.53
2023-02-01T14:04:38.556Z,99885.94
2023-02-01T14:07:05.326Z,99907.13
2023-02-01T14:09:31.675Z,99892.78
2023-02-01T14:11:58.889Z,99885.94
2023-02-01T14:14:25.359Z,99891.16
2023-02-01T14:16:51.706Z,99897.69
2023-02-01T14:19:18.018Z,99904.06
2023-02-01T14:21:44.403Z,99883.69
2023-02-01T14:24:10.708Z,99883.31
2023-02-01T14:26:37.038Z,99879.28
2023-02-01T14:29:03.561Z,99876.19
2023-02-01T14:31:30.010Z,99887.75
2023-02-01T14:33:56.384Z,99883.50
2023-02-01T14:36:22.705Z,99883.84
2023-02-01T14:38:49.297Z,99894.91
2023-02-01T14:41:15.647Z,99881.22
2023-02-01T14:43:42.715Z,99883.47
2023-02-01T14:46:09.100Z,99872.22
2023-02-01T14:48:35.783Z,99879.56
2023-02-01T14:51:02.119Z,99885.41
2023-02-01T14:53:30.317Z,99875.97
2023-02-01T14:55:59.724Z,99881.00
2023-02-01T14:58:26.085Z,99875.97
2023-02-01T15:00:52.451Z,99876.12
2023-02-01T15:03:18.815Z,99879.22
2023-02-01T15:05:45.399Z,99877.09
2023-02-01T15:08:11.710Z,99886.25
2023-02-01T15:10:38.029Z,99882.50
2023-02-01T15:13:04.458Z,99875.16
2023-02-01T15:15:34.542Z,99876.78
2023-02-01T15:18:01.219Z,99869.63
2023-02-01T15:20:27.536Z,99868.09
2023-02-01T15:22:54.609Z,99865.63
2023-02-01T15:25:21.715Z,99867.09
2023-02-01T15:27:48.310Z,99869.16
2023-02-01T15:30:14.624Z,99864.25
2023-02-01T15:32:40.925Z,99851.69
2023-02-01T15:35:07.246Z,99844.97
2023-02-01T15:37:35.314Z,99849.31
2023-02-01T15:40:01.707Z,99829.75
2023-02-01T15:42:28.584Z,99823.91
2023-02-01T15:44:55.125Z,99819.41
2023-02-01T15:47:21.459Z,99818.59
2023-02-01T15:49:47.821Z,99812.53
2023-02-01T15:52:14.134Z,99806.03
2023-02-01T15:54:40.511Z,99791.56
2023-02-01T15:57:06.947Z,99789.13
2023-02-01T15:59:34.282Z,99799.06
2023-02-01T16:02:00.713Z,99791.75
2023-02-01T16:04:27.216Z,99778.72
2023-02-01T16:06:53.670Z,99789.47
2023-02-01T16:09:19.992Z,99800.34
2023-02-01T16:11:46.329Z,99777.22
2023-02-01T16:14:12.635Z,99795.44
2023-02-01T16:16:38.970Z,99791.19
2023-02-01T16:19:05.342Z,99778.09
2023-02-01T16:21:31.850Z,99774.34
2023-02-01T16:23:58.263Z,99764.91
2023-02-01T16:26:24.615Z,99762.50
2023-02-01T16:28:51.097Z,99755.34
2023-02-01T16:31:20.348Z,99750.63
2023-02-01T16:33:48.290Z,99750.72
2023-02-01T16:36:15.251Z,99753.97
2023-02-01T16:38:41.577Z,99745.25
2023-02-01T16:41:13.345Z,99758.34
2023-02-01T16:43:39.704Z,99763.78
2023-02-01T16:46:06.234Z,99786.13
2023-02-01T16:48:32.713Z,99795.44
2023-02-01T16:50:59.098Z,99797.94
2023-02-01T16:53:25.577Z,99811.66
2023-02-01T16:55:53.398Z,99812.47
2023-02-01T16:58:19.948Z,99790.66
2023-02-01T17:00:46.478Z,99800.41
2023-02-01T17:03:17.617Z,99812.19
2023-02-01T17:05:44.082Z,99833.06
2023-02-01T17:08:10.600Z,99855.94
2023-02-01T17:10:36.963Z,99886.00
2023-02-01T17:13:03.414Z,99920.19
2023-02-01T17:15:29.905Z,99934.41
2023-02-01T17:17:57.722Z,99906.09
2023-02-01T17:20:24.155Z,99854.00
2023-02-01T17:22:50.549Z,99816.97
2023-02-01T17:25:17.035Z,99828.66
2023-02-01T17:27:44.207Z,99829.78
2023-02-01T17:30:10.689Z,99843.34
2023-02-01T17:32:37.044Z,99857.25
2023-02-01T17:35:03.957Z,99870.44
2023-02-01T17:37:30.337Z,99869.59
2023-02-01T17:39:56.738Z,99859.06
2023-02-01T17:42:23.088Z,99860.81
2023-02-01T17:44:49.568Z,99869.38
2023-02-01T17:47:15.879Z,99878.16
2023-02-01T17:49:42.212Z,99882.72
2023-02-01T17:52:08.523Z,99888.56
2023-02-01T17:54:35.110Z,99889.19
2023-02-01T17:57:03.612Z,99885.22
2023-02-01T17:59:29.968Z,99886.34
2023-02-01T18:02:01.002Z,99883.84
2023-02-01T18:04:27.439Z,99882.69
2023-02-01T18:06:53.807Z,99898.12
2023-02-01T18:09:20.156Z,99916.31
2023-02-01T18:11:46.833Z,99932.03
2023-02-01T18:14:16.191Z,99920.00
2023-02-01T18:16:42.608Z,99920.84
2023-02-01T18:19:08.996Z,99925.94
2023-02-01T18:21:35.329Z,99917.84
2023-02-01T18:24:01.707Z,99927.06
2023-02-01T18:26:28.049Z,99927.28
2023-02-01T18:28:54.447Z,99927.06
2023-02-01T18:31:22.384Z,99924.31
2023-02-01T18:33:50.908Z,99922.09
2023-02-01T18:36:19.392Z,99922.94
2023-02-01T18:38:45.738Z,99924.13
2023-02-01T18:41:12.057Z,99922.22
2023-02-01T18:43:38.386Z,99924.56
2023-02-01T18:46:04.736Z,99926.69
2023-02-01T18:48:31.298Z,99932.94
2023-02-01T18:50:57.959Z,99933.13
2023-02-01T18:53:27.262Z,99933.41
2023-02-01T18:55:54.866Z,99929.22
2023-02-01T18:58:23.031Z,99930.06
2023-02-01T19:00:53.213Z,99930.97
2023-02-01T19:03:19.533Z,99934.97
2023-02-01T19:05:45.899Z,99931.91
2023-02-01T19:08:12.317Z,99931.72
2023-02-01T19:10:42.216Z,99923.44
2023-02-01T19:13:08.523Z,99930.19
2023-02-01T19:15:40.222Z,99935.91
2023-02-01T19:18:06.653Z,99932.53
2023-02-01T19:20:32.991Z,99925.19
2023-02-01T19:22:59.314Z,99933.78
2023-02-01T19:25:26.118Z,99931.31
2023-02-01T19:27:52.762Z,99932.94
2023-02-01T19:30:19.076Z,99927.78
2023-02-01T19:32:45.629Z,99937.12
2023-02-01T19:35:13.701Z,99938.84
2023-02-01T19:37:41.487Z,99939.06
2023-02-01T19:40:07.783Z,99954.38
2023-02-01T19:42:34.111Z,99942.53
2023-02-01T19:45:00.579Z,99939.63
2023-02-01T19:47:26.913Z,99950.97
2023-02-01T19:49:53.382Z,99952.69
2023-02-01T19:52:19.847Z,99958.84
2023-02-01T19:54:46.171Z,99943.50
2023-02-01T19:57:12.572Z,99962.31
2023-02-01T19:59:38.916Z,99956.91
2023-02-01T20:04:36.441Z,99951.06
2023-02-01T20:07:03.520Z,99941.28
2023-02-01T20:09:30.202Z,99944.53
2023-02-01T20:11:56.738Z,99942.47
2023-02-01T20:14:24.272Z,99948.63
2023-02-01T20:16:50.604Z,99955.09
2023-02-01T20:19:17.104Z,99961.91
2023-02-01T20:21:43.666Z,99953.75
2023-02-01T20:24:10.114Z,99960.88
2023-02-01T20:26:37.311Z,99960.38
2023-02-01T20:29:04.165Z,99958.13
2023-02-01T20:31:30.614Z,99971.72
2023-02-01T20:33:57.019Z,99962.22
2023-02-01T20:36:23.494Z,99966.62
2023-02-01T20:38:49.829Z,99974.91
2023-02-01T20:41:16.305Z,99978.16
2023-02-01T20:43:42.749Z,99998.09
2023-02-01T20:46:09.901Z,100004.03
2023-02-01T20:48:36.364Z,100005.38
2023-02-01T20:51:02.872Z,99997.84
2023-02-01T20:53:29.216Z,100005.31
2023-02-01T20:55:55.615Z,100006.50
2023-02-01T20:58:21.960Z,99994.00
2023-02-01T21:00:48.536Z,99992.41
2023-02-01T21:03:14.992Z,99985.41
2023-02-01T21:05:41.325Z,99997.31
2023-02-01T21:08:08.976Z,99987.91
2023-02-01T21:13:07.260Z,99993.00
2023-02-01T21:15:34.943Z,99996.75
2023-02-01T21:18:01.618Z,100000.06
2023-02-01T21:20:28.117Z,100001.69
2023-02-01T21:22:54.433Z,100003.03
2023-02-01T21:25:20.791Z,99991.91
2023-02-01T21:27:47.182Z,99996.38
2023-02-01T21:30:13.711Z,100001.09
2023-02-01T21:32:40.032Z,100009.28
2023-02-01T21:35:06.363Z,100013.16
2023-02-01T21:37:32.684Z,100004.41
2023-02-01T21:39:59.001Z,100000.19
2023-02-01T21:42:26.658Z,100009.06
2023-02-01T21:44:53.056Z,100008.38
2023-02-01T21:47:19.351Z,100007.41
2023-02-01T21:49:47.633Z,99999.88
2023-02-01T21:52:14.335Z,100016.13
2023-02-01T21:54:40.659Z,100004.25
2023-02-01T21:57:12.633Z,99995.09
2023-02-01T21:59:39.068Z,99988.25
2023-02-01T22:02:06.235Z,100007.47
2023-02-01T22:04:32.662Z,100010.41
2023-02-01T22:07:02.199Z,100003.81
2023-02-01T22:09:28.558Z,100013.00
2023-02-01T22:11:54.883Z,100006.97
2023-02-01T22:14:21.217Z,100016.87
2023-02-01T22:16:47.626Z,100007.75
2023-02-01T22:19:14.012Z,100018.69
2023-02-01T22:21:42.169Z,100016.87
2023-02-01T22:24:08.488Z,100017.38
2023-02-01T22:26:34.859Z,100017.69
2023-02-01T22:29:01.200Z,100023.72
2023-02-01T22:31:27.661Z,100026.06
2023-02-01T22:33:54.037Z,100020.94
2023-02-01T22:36:20.411Z,100015.53
2023-02-01T22:38:46.723Z,100022.44
2023-02-01T22:41:13.054Z,100033.53
2023-02-01T22:43:39.367Z,100017.88
2023-02-01T22:46:05.702Z,100026.97
2023-02-01T22:48:32.026Z,100025.88
2023-02-01T22:50:58.410Z,100022.38
2023-02-01T22:53:24.804Z,100019.87
2023-02-01T22:55:52.097Z,100019.66
2023-02-01T22:58:18.476Z,100014.66
2023-02-01T23:00:44.825Z,100019.44
2023-02-01T23:03:11.199Z,100009.72
2023-02-01T23:05:37.613Z,100004.84
2023-02-01T23:08:03.925Z,100010.47
2023-02-01T23:10:30.285Z,100017.09
2023-02-01T23:12:56.584Z,100020.09
2023-02-01T23:15:23.272Z,100018.25
2023-02-01T23:17:49.768Z,100024.38
2023-02-01T23:20:16.073Z,100014.97
2023-02-01T23:22:42.476Z,100020.41
2023-02-01T23:25:08.803Z,100029.22
2023-02-01T23:27:35.111Z,100024.59
2023-02-01T23:30:01.519Z,100015.81
2023-02-01T23:32:27.856Z,100027.25
2023-02-01T23:34:54.305Z,100035.12
2023-02-01T23:37:20.722Z,100035.75
2023-02-01T23:39:47.042Z,100032.47
2023-02-01T23:42:13.384Z,100044.16
2023-02-01T23:44:39.699Z,100050.56
2023-02-01T23:47:06.015Z,100047.63
2023-02-01T23:49:32.328Z,100031.34
2023-02-01T23:51:58.628Z,100053.22
2023-02-01T23:54:24.966Z,100041.06
2023-02-01T23:56:51.316Z,100049.63
2023-02-01T23:59:17.643Z,100039.66
